Time;durP1;ratioP1;P1;durP2;ratioP2;P2;SDS_P1;SDS_P2;PMS_P1;PMS_P2;Temp;Humidity;BMP_temperature;BMP_pressure;BME280_temperature;BME280_humidity;BME280_pressure;Samples;Min_cycle;Max_cycle;Signal;HPM_P1;HPM_P2
2021/07/02 00:00:47;;;;;;;48.92;18.42;;;;;;;;;;5017013;28;20052;-49
2021/07/02 00:03:13;;;;;;;51.67;18.67;;;;;;;;;;5023456;28;20045;-47
2021/07/02 00:05:40;;;;;;;44.50;16.83;;;;;;;;;;5013817;28;20172;-48
2021/07/02 00:08:06;;;;;;;49.72;17.85;;;;;;;;;;5006824;28;20144;-48
2021/07/02 00:10:33;;;;;;;50.00;18.35;;;;;;;;;;5022862;28;20164;-49
2021/07/02 00:12:59;;;;;;;47.13;16.42;;;;;;;;;;5014578;28;20316;-49
2021/07/02 00:15:26;;;;;;;43.53;17.95;;;;;;;;;;5023585;28;20049;-47
2021/07/02 00:17:52;;;;;;;51.92;17.05;;;;;;;;;;5016176;28;20140;-47
2021/07/02 00:20:18;;;;;;;50.22;17.85;;;;;;;;;;5021947;28;20136;-48
2021/07/02 00:22:45;;;;;;;45.85;18.02;;;;;;;;;;5012558;28;20148;-48
2021/07/02 00:25:11;;;;;;;48.38;18.23;;;;;;;;;;5020537;28;20870;-49
2021/07/02 00:27:38;;;;;;;42.88;16.92;;;;;;;;;;5016358;28;20136;-47
2021/07/02 00:30:05;;;;;;;47.53;17.92;;;;;;;;;;5020953;28;20225;-48
2021/07/02 00:32:32;;;;;;;42.33;17.33;;;;;;;;;;5014004;28;20077;-48
2021/07/02 00:34:59;;;;;;;42.05;17.25;;;;;;;;;;4993952;28;20049;-48
2021/07/02 00:37:25;;;;;;;54.92;17.98;;;;;;;;;;5004486;28;20049;-49
2021/07/02 00:39:51;;;;;;;51.72;18.50;;;;;;;;;;5012426;28;20091;-48
2021/07/02 00:42:18;;;;;;;42.60;17.60;;;;;;;;;;5016015;28;20485;-48
2021/07/02 00:44:45;;;;;;;44.70;18.70;;;;;;;;;;5015728;28;20049;-48
2021/07/02 00:47:12;;;;;;;51.63;18.88;;;;;;;;;;5015600;28;20048;-49
2021/07/02 00:49:38;;;;;;;60.58;19.35;;;;;;;;;;5011977;28;20149;-48
2021/07/02 00:52:05;;;;;;;49.60;20.10;;;;;;;;;;5005601;28;20052;-48
2021/07/02 00:54:35;;;;;;;53.55;18.80;;;;;;;;;;5013601;28;20512;-48
2021/07/02 00:57:03;;;;;;;50.38;20.98;;;;;;;;;;5011388;28;20053;-47
2021/07/02 00:59:30;;;;;;;43.92;18.65;;;;;;;;;;5024939;28;20563;-48
2021/07/02 01:01:56;;;;;;;46.00;18.15;;;;;;;;;;5011344;28;20140;-49
2021/07/02 01:04:25;;;;;;;47.40;19.20;;;;;;;;;;5022117;28;20494;-48
2021/07/02 01:06:52;;;;;;;44.10;18.17;;;;;;;;;;5017794;28;20103;-48
2021/07/02 01:09:19;;;;;;;52.70;19.00;;;;;;;;;;5023662;28;20152;-48
2021/07/02 01:11:45;;;;;;;48.45;18.58;;;;;;;;;;5019219;28;20038;-48
2021/07/02 01:14:12;;;;;;;49.28;18.92;;;;;;;;;;5006612;28;20807;-48
2021/07/02 01:16:38;;;;;;;58.75;19.27;;;;;;;;;;5018799;28;20136;-48
2021/07/02 01:19:05;;;;;;;50.25;20.05;;;;;;;;;;5017777;28;20084;-48
2021/07/02 01:21:32;;;;;;;51.33;19.08;;;;;;;;;;5023484;28;20175;-48
2021/07/02 01:23:59;;;;;;;46.10;20.23;;;;;;;;;;5017324;28;20134;-48
2021/07/02 01:26:25;;;;;;;43.10;17.23;;;;;;;;;;5010202;28;20140;-48
2021/07/02 01:28:52;;;;;;;45.83;19.15;;;;;;;;;;5015954;28;20053;-48
2021/07/02 01:31:18;;;;;;;46.15;19.23;;;;;;;;;;5013647;28;20406;-48
2021/07/02 01:33:44;;;;;;;53.25;19.35;;;;;;;;;;5022094;28;20103;-48
2021/07/02 01:36:21;;;;;;;48.60;17.58;;;;;;;;;;5016355;28;20167;-47
2021/07/02 01:38:48;;;;;;;55.75;17.85;;;;;;;;;;5022523;28;20142;-48
2021/07/02 01:41:15;;;;;;;43.75;17.70;;;;;;;;;;5016925;28;20470;-48
2021/07/02 01:43:41;;;;;;;48.38;18.58;;;;;;;;;;5017044;28;20073;-47
2021/07/02 01:46:07;;;;;;;51.28;17.55;;;;;;;;;;5015841;28;20136;-47
2021/07/02 01:48:34;;;;;;;51.25;17.92;;;;;;;;;;5011017;28;20061;-48
2021/07/02 01:51:01;;;;;;;46.45;18.58;;;;;;;;;;5021394;28;20136;-51
2021/07/02 01:53:27;;;;;;;48.42;17.45;;;;;;;;;;5007351;28;20141;-49
2021/07/02 01:55:54;;;;;;;42.05;18.27;;;;;;;;;;5019835;28;20046;-48
2021/07/02 01:58:20;;;;;;;45.33;17.90;;;;;;;;;;5011691;28;20072;-47
2021/07/02 02:00:47;;;;;;;45.45;19.02;;;;;;;;;;5017186;28;20152;-48
2021/07/02 02:03:13;;;;;;;56.67;19.58;;;;;;;;;;5016310;28;20068;-48
2021/07/02 02:05:40;;;;;;;51.90;18.42;;;;;;;;;;5019246;28;20067;-48
2021/07/02 02:08:06;;;;;;;42.53;16.83;;;;;;;;;;5021985;28;20132;-48
2021/07/02 02:10:32;;;;;;;47.83;18.83;;;;;;;;;;5009360;28;20139;-47
2021/07/02 02:12:59;;;;;;;44.38;17.92;;;;;;;;;;5005103;28;20132;-48
2021/07/02 02:15:25;;;;;;;45.20;19.08;;;;;;;;;;5016960;28;20849;-48
2021/07/02 02:17:52;;;;;;;50.03;17.45;;;;;;;;;;5018479;28;20136;-48
2021/07/02 02:20:18;;;;;;;50.17;20.15;;;;;;;;;;5001377;28;20132;-46
2021/07/02 02:22:44;;;;;;;56.50;19.08;;;;;;;;;;5017016;28;20041;-47
2021/07/02 02:25:11;;;;;;;45.45;19.15;;;;;;;;;;5009078;28;20141;-48
2021/07/02 02:27:37;;;;;;;48.78;17.58;;;;;;;;;;4995743;28;20181;-47
2021/07/02 02:30:08;;;;;;;42.70;18.35;;;;;;;;;;5006990;28;20628;-47
2021/07/02 02:32:35;;;;;;;41.13;16.98;;;;;;;;;;5002076;28;20092;-48
2021/07/02 02:35:01;;;;;;;41.40;18.70;;;;;;;;;;5021601;28;20136;-50
2021/07/02 02:37:28;;;;;;;51.97;17.55;;;;;;;;;;5013650;28;20148;-49
2021/07/02 02:39:54;;;;;;;50.03;16.65;;;;;;;;;;5001836;28;20156;-47
2021/07/02 02:42:21;;;;;;;46.17;17.45;;;;;;;;;;5010925;28;20581;-47
2021/07/02 02:44:47;;;;;;;47.95;18.00;;;;;;;;;;5021902;28;20140;-49
2021/07/02 02:47:13;;;;;;;44.85;17.75;;;;;;;;;;5021330;28;20052;-47
2021/07/02 02:49:40;;;;;;;42.53;16.90;;;;;;;;;;5009561;28;20666;-47
2021/07/02 02:52:06;;;;;;;44.05;17.63;;;;;;;;;;5015155;28;20149;-48
2021/07/02 02:54:33;;;;;;;55.03;19.50;;;;;;;;;;5007106;28;20149;-48
2021/07/02 02:57:07;;;;;;;44.83;18.50;;;;;;;;;;5006589;28;20045;-48
2021/07/02 02:59:34;;;;;;;44.85;18.38;;;;;;;;;;5016339;28;20073;-47
2021/07/02 03:02:01;;;;;;;45.42;18.75;;;;;;;;;;5017472;28;20132;-48
2021/07/02 03:04:28;;;;;;;45.50;18.40;;;;;;;;;;5008382;28;20049;-47
2021/07/02 03:06:54;;;;;;;50.67;18.75;;;;;;;;;;5014335;28;20112;-48
2021/07/02 03:09:20;;;;;;;45.72;17.63;;;;;;;;;;5016413;28;20092;-47
2021/07/02 03:11:51;;;;;;;56.80;19.75;;;;;;;;;;5014159;28;20131;-46
2021/07/02 03:14:18;;;;;;;50.83;18.80;;;;;;;;;;5009883;28;20137;-48
2021/07/02 03:16:44;;;;;;;54.55;20.35;;;;;;;;;;5011245;28;20060;-49
2021/07/02 03:19:11;;;;;;;47.50;18.85;;;;;;;;;;5025294;28;20139;-48
2021/07/02 03:21:37;;;;;;;55.67;19.67;;;;;;;;;;5004840;28;20055;-48
2021/07/02 03:24:03;;;;;;;45.15;18.20;;;;;;;;;;5019205;28;20148;-48
2021/07/02 03:26:30;;;;;;;44.78;17.17;;;;;;;;;;5019319;28;20472;-48
2021/07/02 03:28:56;;;;;;;45.40;17.60;;;;;;;;;;5005820;28;20152;-46
2021/07/02 03:31:23;;;;;;;48.97;18.80;;;;;;;;;;5017761;28;20562;-47
2021/07/02 03:33:49;;;;;;;44.15;17.00;;;;;;;;;;4998701;28;20084;-46
2021/07/02 03:36:16;;;;;;;44.72;17.45;;;;;;;;;;5006095;28;20081;-47
2021/07/02 03:38:42;;;;;;;50.13;17.08;;;;;;;;;;5020293;28;20133;-48
2021/07/02 03:41:08;;;;;;;49.85;17.88;;;;;;;;;;5016991;28;20205;-47
2021/07/02 03:43:35;;;;;;;56.88;20.23;;;;;;;;;;5024830;28;20049;-46
2021/07/02 03:46:01;;;;;;;46.83;18.80;;;;;;;;;;5015916;28;20080;-48
2021/07/02 03:48:28;;;;;;;53.13;19.73;;;;;;;;;;5021830;28;20062;-48
2021/07/02 03:50:54;;;;;;;44.03;19.15;;;;;;;;;;5018100;28;20777;-48
2021/07/02 03:53:20;;;;;;;49.67;19.77;;;;;;;;;;5021504;28;20140;-47
2021/07/02 03:55:47;;;;;;;57.10;20.30;;;;;;;;;;5020845;28;20136;-47
2021/07/02 03:58:13;;;;;;;46.22;18.45;;;;;;;;;;5023279;28;20626;-47
2021/07/02 04:00:40;;;;;;;56.10;19.65;;;;;;;;;;5007395;28;20195;-47
2021/07/02 04:03:06;;;;;;;48.88;19.67;;;;;;;;;;5016873;28;20485;-48
2021/07/02 04:05:32;;;;;;;43.00;19.58;;;;;;;;;;5016708;28;20073;-47
2021/07/02 04:07:59;;;;;;;54.13;21.23;;;;;;;;;;5007743;28;20060;-48
2021/07/02 04:10:26;;;;;;;49.40;20.27;;;;;;;;;;5019232;28;20091;-48
2021/07/02 04:12:52;;;;;;;59.22;21.10;;;;;;;;;;5012643;28;20554;-49
2021/07/02 04:15:19;;;;;;;60.47;21.02;;;;;;;;;;5016273;28;20077;-47
2021/07/02 04:17:45;;;;;;;47.92;20.10;;;;;;;;;;5017439;28;20140;-48
2021/07/02 04:20:13;;;;;;;52.83;19.17;;;;;;;;;;5004266;28;20054;-48
2021/07/02 04:22:39;;;;;;;48.28;21.13;;;;;;;;;;5010527;28;20099;-48
2021/07/02 04:25:08;;;;;;;53.67;20.40;;;;;;;;;;5005838;28;20140;-47
2021/07/02 04:27:34;;;;;;;54.42;21.27;;;;;;;;;;4999392;28;20716;-47
2021/07/02 04:30:03;;;;;;;53.40;22.45;;;;;;;;;;4995206;28;20088;-47
2021/07/02 04:32:29;;;;;;;62.35;23.42;;;;;;;;;;5020483;28;20144;-47
2021/07/02 04:34:56;;;;;;;56.55;23.05;;;;;;;;;;5015333;28;20050;-47
2021/07/02 04:37:22;;;;;;;59.92;23.27;;;;;;;;;;4999131;28;20144;-47
2021/07/02 04:39:48;;;;;;;62.17;23.63;;;;;;;;;;5005547;28;20473;-47
2021/07/02 04:42:15;;;;;;;61.38;22.73;;;;;;;;;;5008410;28;20060;-47
2021/07/02 04:44:41;;;;;;;63.22;23.88;;;;;;;;;;5020245;28;20851;-48
2021/07/02 04:47:07;;;;;;;52.00;23.80;;;;;;;;;;5010371;28;20045;-48
2021/07/02 04:49:34;;;;;;;67.18;23.00;;;;;;;;;;5021229;28;20497;-49
2021/07/02 04:52:00;;;;;;;51.25;21.73;;;;;;;;;;5006062;28;20171;-49
2021/07/02 04:54:27;;;;;;;64.28;24.42;;;;;;;;;;5013731;28;20076;-48
2021/07/02 04:56:54;;;;;;;56.55;21.67;;;;;;;;;;5009092;28;20077;-47
2021/07/02 04:59:26;;;;;;;54.67;22.88;;;;;;;;;;5017618;28;20132;-48
2021/07/02 05:01:53;;;;;;;67.07;25.17;;;;;;;;;;5017362;28;20950;-48
2021/07/02 05:04:19;;;;;;;61.35;24.25;;;;;;;;;;5012550;28;20387;-49
2021/07/02 05:06:46;;;;;;;60.85;24.38;;;;;;;;;;5014638;28;20087;-48
2021/07/02 05:09:12;;;;;;;62.25;23.38;;;;;;;;;;5019423;28;20049;-49
2021/07/02 05:11:39;;;;;;;70.47;25.30;;;;;;;;;;5017525;28;20115;-47
2021/07/02 05:14:07;;;;;;;69.22;23.50;;;;;;;;;;5013027;28;20152;-47
2021/07/02 05:16:33;;;;;;;69.85;24.83;;;;;;;;;;5002907;28;20140;-47
2021/07/02 05:18:59;;;;;;;73.55;26.10;;;;;;;;;;5013360;28;20050;-47
2021/07/02 05:21:26;;;;;;;68.05;27.00;;;;;;;;;;5010697;28;20049;-51
2021/07/02 05:23:52;;;;;;;68.82;26.35;;;;;;;;;;5019404;28;20080;-48
2021/07/02 05:26:19;;;;;;;62.30;25.88;;;;;;;;;;5020974;28;20548;-47
2021/07/02 05:28:45;;;;;;;70.00;25.15;;;;;;;;;;5018117;28;20143;-49
2021/07/02 05:31:11;;;;;;;68.82;25.90;;;;;;;;;;5023342;28;20136;-50
2021/07/02 05:33:38;;;;;;;66.72;25.27;;;;;;;;;;5003840;28;20103;-47
2021/07/02 05:36:04;;;;;;;64.78;25.02;;;;;;;;;;5005700;28;20136;-49
2021/07/02 05:38:31;;;;;;;60.08;25.15;;;;;;;;;;5015056;28;20144;-48
2021/07/02 05:40:57;;;;;;;70.63;25.23;;;;;;;;;;5014660;28;20156;-49
2021/07/02 05:43:24;;;;;;;66.05;25.48;;;;;;;;;;5012784;28;20485;-47
2021/07/02 05:45:51;;;;;;;66.50;26.15;;;;;;;;;;5017465;28;20064;-48
2021/07/02 05:48:20;;;;;;;67.57;25.45;;;;;;;;;;5005807;28;20060;-47
2021/07/02 05:50:47;;;;;;;60.92;24.33;;;;;;;;;;5016247;28;20053;-49
2021/07/02 05:53:14;;;;;;;61.97;25.88;;;;;;;;;;5019010;28;20137;-49
2021/07/02 05:55:41;;;;;;;66.55;25.00;;;;;;;;;;5014335;28;20136;-48
2021/07/02 05:58:07;;;;;;;69.65;26.40;;;;;;;;;;5012599;28;20562;-48
2021/07/02 06:00:35;;;;;;;62.25;25.95;;;;;;;;;;5004618;28;20699;-47
2021/07/02 06:03:02;;;;;;;62.15;26.83;;;;;;;;;;5014060;28;20140;-47
2021/07/02 06:05:28;;;;;;;63.88;26.33;;;;;;;;;;5022605;28;20082;-48
2021/07/02 06:07:55;;;;;;;62.33;25.40;;;;;;;;;;5009205;28;20564;-47
2021/07/02 06:10:22;;;;;;;72.40;26.35;;;;;;;;;;5019164;28;20312;-48
2021/07/02 06:12:49;;;;;;;68.93;26.58;;;;;;;;;;5005114;28;20137;-47
2021/07/02 06:15:16;;;;;;;55.20;24.80;;;;;;;;;;5001202;28;20058;-47
2021/07/02 06:17:44;;;;;;;61.65;25.38;;;;;;;;;;5005897;28;20140;-50
2021/07/02 06:20:11;;;;;;;60.78;25.35;;;;;;;;;;5006865;28;20120;-48
2021/07/02 06:22:37;;;;;;;60.88;24.35;;;;;;;;;;5003937;28;20129;-47
2021/07/02 06:25:04;;;;;;;54.35;24.05;;;;;;;;;;5010619;28;20471;-47
2021/07/02 06:27:31;;;;;;;65.85;24.02;;;;;;;;;;5020860;28;20144;-49
2021/07/02 06:29:57;;;;;;;63.33;22.50;;;;;;;;;;5005219;28;20103;-47
2021/07/02 06:32:24;;;;;;;50.33;21.23;;;;;;;;;;5014042;28;20132;-49
2021/07/02 06:34:50;;;;;;;57.00;21.42;;;;;;;;;;5012465;28;20069;-49
2021/07/02 06:37:17;;;;;;;51.85;20.67;;;;;;;;;;5020242;28;20048;-48
2021/07/02 06:39:43;;;;;;;57.55;22.23;;;;;;;;;;5018132;28;20102;-46
2021/07/02 06:42:10;;;;;;;60.75;21.25;;;;;;;;;;5015735;28;20056;-48
2021/07/02 06:44:36;;;;;;;68.18;23.85;;;;;;;;;;5015414;28;20050;-48
2021/07/02 06:47:03;;;;;;;55.60;21.70;;;;;;;;;;5015768;28;20056;-47
2021/07/02 06:49:29;;;;;;;51.58;22.17;;;;;;;;;;5021177;28;20517;-48
2021/07/02 06:51:56;;;;;;;58.10;23.45;;;;;;;;;;5015789;28;20949;-48
2021/07/02 06:54:22;;;;;;;50.35;21.52;;;;;;;;;;5022134;28;20484;-48
2021/07/02 06:57:01;;;;;;;53.47;21.50;;;;;;;;;;5013592;28;20164;-47
2021/07/02 06:59:28;;;;;;;56.60;21.23;;;;;;;;;;5018112;28;20494;-47
2021/07/02 07:01:55;;;;;;;58.47;21.48;;;;;;;;;;5020975;28;20496;-48
2021/07/02 07:04:23;;;;;;;50.25;21.25;;;;;;;;;;5015672;28;20582;-47
2021/07/02 07:06:49;;;;;;;51.97;21.33;;;;;;;;;;5020518;28;20111;-49
2021/07/02 07:09:16;;;;;;;48.70;18.85;;;;;;;;;;5014163;28;21067;-49
2021/07/02 07:11:42;;;;;;;56.33;21.80;;;;;;;;;;5014467;28;20145;-52
2021/07/02 07:14:08;;;;;;;48.63;20.05;;;;;;;;;;5006423;28;21118;-48
2021/07/02 07:16:35;;;;;;;55.83;21.73;;;;;;;;;;5010683;28;20153;-48
2021/07/02 07:19:01;;;;;;;50.95;19.88;;;;;;;;;;5018778;28;20737;-48
2021/07/02 07:21:28;;;;;;;50.08;20.38;;;;;;;;;;5012053;28;20370;-49
2021/07/02 07:23:54;;;;;;;48.22;18.05;;;;;;;;;;5015744;28;20046;-49
2021/07/02 07:26:21;;;;;;;49.25;21.98;;;;;;;;;;5007371;28;20135;-48
2021/07/02 07:28:47;;;;;;;48.35;19.55;;;;;;;;;;5003082;28;20488;-50
2021/07/02 07:31:13;;;;;;;49.05;20.60;;;;;;;;;;5009684;28;20156;-48
2021/07/02 07:33:44;;;;;;;51.83;20.00;;;;;;;;;;5007005;28;20953;-49
2021/07/02 07:36:15;;;;;;;50.92;21.00;;;;;;;;;;5010998;28;20164;-49
2021/07/02 07:38:44;;;;;;;48.42;20.27;;;;;;;;;;5005297;28;20053;-48
2021/07/02 07:41:10;;;;;;;46.42;18.95;;;;;;;;;;5016577;28;20156;-47
2021/07/02 07:43:37;;;;;;;50.97;20.70;;;;;;;;;;5013630;28;20743;-47
2021/07/02 07:46:05;;;;;;;51.38;22.48;;;;;;;;;;5017331;28;20128;-51
2021/07/02 07:48:32;;;;;;;51.92;21.20;;;;;;;;;;5015762;28;20140;-47
2021/07/02 07:51:17;;;;;;;49.35;21.58;;;;;;;;;;5021485;28;20104;-47
2021/07/02 07:53:44;;;;;;;49.20;20.88;;;;;;;;;;5010447;28;20140;-48
2021/07/02 07:56:10;;;;;;;55.80;24.33;;;;;;;;;;5017647;28;20164;-47
2021/07/02 07:58:37;;;;;;;55.70;23.88;;;;;;;;;;5016111;28;20057;-47
2021/07/02 08:01:03;;;;;;;52.17;23.45;;;;;;;;;;5017082;28;20080;-48
2021/07/02 08:03:30;;;;;;;52.47;22.27;;;;;;;;;;5017543;28;20088;-47
2021/07/02 08:05:56;;;;;;;51.05;22.23;;;;;;;;;;5006734;28;20099;-47
2021/07/02 08:08:23;;;;;;;53.78;23.38;;;;;;;;;;5015164;28;20141;-48
2021/07/02 08:10:50;;;;;;;52.50;23.30;;;;;;;;;;5015364;28;20054;-47
2021/07/02 08:13:17;;;;;;;47.90;21.60;;;;;;;;;;5016326;28;20046;-49
2021/07/02 08:15:43;;;;;;;43.20;22.58;;;;;;;;;;5018150;28;20053;-48
2021/07/02 08:18:10;;;;;;;41.45;19.98;;;;;;;;;;5023735;28;20052;-47
2021/07/02 08:20:36;;;;;;;47.75;22.10;;;;;;;;;;5019832;28;20432;-48
2021/07/02 08:23:08;;;;;;;42.10;21.23;;;;;;;;;;5010802;28;20049;-49
2021/07/02 08:25:35;;;;;;;52.88;22.77;;;;;;;;;;5016469;28;20123;-47
2021/07/02 08:30:47;;;;;;;50.67;22.42;;;;;;;;;;5019333;28;20088;-48
2021/07/02 08:33:17;;;;;;;48.17;20.90;;;;;;;;;;5015534;28;20148;-46
2021/07/02 08:35:45;;;;;;;40.25;18.80;;;;;;;;;;5016694;28;20136;-50
2021/07/02 08:38:12;;;;;;;36.53;17.87;;;;;;;;;;5014221;28;20888;-48
2021/07/02 08:40:39;;;;;;;34.92;19.05;;;;;;;;;;5018128;28;20069;-47
2021/07/02 08:43:05;;;;;;;35.42;18.17;;;;;;;;;;5021144;28;20420;-48
2021/07/02 08:45:32;;;;;;;41.72;19.13;;;;;;;;;;5017451;28;20647;-48
2021/07/02 08:48:01;;;;;;;42.58;20.90;;;;;;;;;;5014210;28;20088;-47
2021/07/02 08:50:28;;;;;;;46.17;21.30;;;;;;;;;;5009300;28;20056;-48
2021/07/02 08:52:54;;;;;;;41.55;21.67;;;;;;;;;;5023392;28;20060;-48
2021/07/02 08:55:20;;;;;;;47.13;22.65;;;;;;;;;;5013859;28;20073;-48
2021/07/02 08:57:47;;;;;;;57.53;23.20;;;;;;;;;;5017371;28;20055;-48
2021/07/02 09:00:13;;;;;;;60.35;24.52;;;;;;;;;;5017936;28;20137;-48
2021/07/02 09:02:41;;;;;;;57.92;24.63;;;;;;;;;;5011094;28;20723;-48
2021/07/02 09:05:25;;;;;;;57.30;25.58;;;;;;;;;;5014786;28;20631;-47
2021/07/02 09:07:51;;;;;;;55.95;25.33;;;;;;;;;;5014429;28;20041;-49
2021/07/02 09:10:18;;;;;;;54.80;24.95;;;;;;;;;;5021582;28;20781;-48
2021/07/02 09:12:51;;;;;;;57.17;23.70;;;;;;;;;;5012244;28;20149;-48
2021/07/02 09:15:18;;;;;;;63.50;25.17;;;;;;;;;;5020234;28;20493;-48
2021/07/02 09:17:50;;;;;;;54.95;24.35;;;;;;;;;;5007898;28;20168;-47
2021/07/02 09:20:19;;;;;;;50.80;22.83;;;;;;;;;;5016461;28;20147;-48
2021/07/02 09:22:52;;;;;;;48.50;21.48;;;;;;;;;;5013415;28;20141;-49
2021/07/02 09:25:47;;;;;;;46.60;21.70;;;;;;;;;;5012435;28;20502;-48
2021/07/02 09:28:14;;;;;;;52.78;21.45;;;;;;;;;;5012114;28;20092;-49
2021/07/02 09:30:42;;;;;;;43.53;22.58;;;;;;;;;;5007788;28;20152;-48
2021/07/02 09:33:10;;;;;;;40.55;20.92;;;;;;;;;;5008903;28;20104;-48
2021/07/02 09:35:48;;;;;;;50.03;21.38;;;;;;;;;;5011893;28;20055;-48
2021/07/02 09:38:16;;;;;;;49.13;22.95;;;;;;;;;;5022239;28;20049;-48
2021/07/02 09:40:44;;;;;;;51.97;23.17;;;;;;;;;;5000404;28;20046;-48
2021/07/02 09:43:14;;;;;;;54.67;24.20;;;;;;;;;;5020431;28;20048;-49
2021/07/02 09:45:44;;;;;;;55.40;25.33;;;;;;;;;;5003897;28;20076;-48
2021/07/02 09:48:11;;;;;;;56.65;27.13;;;;;;;;;;5017383;28;20049;-51
2021/07/02 09:50:42;;;;;;;45.75;22.92;;;;;;;;;;5012855;28;20129;-49
2021/07/02 09:53:11;;;;;;;54.20;25.73;;;;;;;;;;4997763;28;20160;-50
2021/07/02 09:55:44;;;;;;;48.78;23.35;;;;;;;;;;5014136;28;20056;-50
2021/07/02 09:58:12;;;;;;;45.63;22.15;;;;;;;;;;5012583;28;20450;-49
2021/07/02 10:00:43;;;;;;;53.17;25.58;;;;;;;;;;5015779;28;20103;-50
2021/07/02 10:03:09;;;;;;;55.22;24.65;;;;;;;;;;5007126;28;20085;-49
2021/07/02 10:05:47;;;;;;;48.60;25.23;;;;;;;;;;5022791;28;20053;-49
2021/07/02 10:08:14;;;;;;;60.90;29.35;;;;;;;;;;5008042;28;20136;-49
2021/07/02 10:10:40;;;;;;;56.47;28.58;;;;;;;;;;5012518;28;20879;-49
2021/07/02 10:13:07;;;;;;;56.47;26.27;;;;;;;;;;5005158;28;20128;-49
2021/07/02 10:15:35;;;;;;;57.35;26.17;;;;;;;;;;5008194;28;20584;-48
2021/07/02 10:18:03;;;;;;;54.80;27.10;;;;;;;;;;5012482;28;20048;-48
2021/07/02 10:20:30;;;;;;;67.40;28.50;;;;;;;;;;5010517;28;20085;-50
2021/07/02 10:22:58;;;;;;;62.23;27.20;;;;;;;;;;5020892;28;20172;-50
2021/07/02 10:25:29;;;;;;;62.47;27.98;;;;;;;;;;5010635;28;20093;-49
2021/07/02 10:27:56;;;;;;;56.47;27.08;;;;;;;;;;5008350;28;20092;-48
2021/07/02 10:30:23;;;;;;;55.58;26.85;;;;;;;;;;5019384;28;20136;-49
2021/07/02 10:32:52;;;;;;;59.67;26.73;;;;;;;;;;5010790;28;20073;-48
2021/07/02 10:35:19;;;;;;;60.08;27.88;;;;;;;;;;5016093;28;20133;-49
2021/07/02 10:37:47;;;;;;;53.83;25.80;;;;;;;;;;5014962;28;20189;-49
2021/07/02 10:40:19;;;;;;;51.35;26.63;;;;;;;;;;5018358;28;20052;-49
2021/07/02 10:43:05;;;;;;;53.50;26.83;;;;;;;;;;5007632;28;20952;-49
2021/07/02 10:45:31;;;;;;;58.25;28.05;;;;;;;;;;5018544;28;20129;-48
2021/07/02 10:47:57;;;;;;;59.13;28.35;;;;;;;;;;5015639;28;20080;-49
2021/07/02 10:50:43;;;;;;;59.95;27.95;;;;;;;;;;5021276;28;20568;-50
2021/07/02 10:53:29;;;;;;;54.95;25.55;;;;;;;;;;5004483;28;20140;-49
2021/07/02 10:55:57;;;;;;;61.60;27.92;;;;;;;;;;5012313;28;20537;-48
2021/07/02 10:58:23;;;;;;;54.53;25.15;;;;;;;;;;5014877;28;20057;-50
2021/07/02 11:01:09;;;;;;;48.00;23.35;;;;;;;;;;5010593;28;20548;-49
2021/07/02 11:03:36;;;;;;;53.80;27.05;;;;;;;;;;5009700;28;20050;-49
2021/07/02 11:06:28;;;;;;;56.28;27.90;;;;;;;;;;5008146;28;20061;-50
2021/07/02 11:08:55;;;;;;;56.88;28.27;;;;;;;;;;5012252;28;20529;-50
2021/07/02 11:11:21;;;;;;;50.90;26.50;;;;;;;;;;5012225;28;20152;-49
2021/07/02 11:14:10;;;;;;;47.10;25.05;;;;;;;;;;5013087;28;20085;-51
2021/07/02 11:17:00;;;;;;;54.92;26.77;;;;;;;;;;5012153;28;20466;-49
2021/07/02 11:19:26;;;;;;;50.33;25.80;;;;;;;;;;4992776;28;20046;-49
2021/07/02 11:22:12;;;;;;;48.70;23.55;;;;;;;;;;4997599;28;20133;-49
2021/07/02 11:24:57;;;;;;;50.65;24.23;;;;;;;;;;5007829;28;20152;-49
2021/07/02 11:27:53;;;;;;;49.78;24.98;;;;;;;;;;4998113;28;20498;-50
2021/07/02 11:30:23;;;;;;;46.53;23.30;;;;;;;;;;5021383;28;20096;-49
2021/07/02 11:32:55;;;;;;;48.38;25.15;;;;;;;;;;5012611;28;20552;-48
2021/07/02 11:35:22;;;;;;;52.95;24.15;;;;;;;;;;5015657;28;20136;-48
2021/07/02 11:37:59;;;;;;;50.38;24.98;;;;;;;;;;5008178;28;20057;-48
2021/07/02 11:40:33;;;;;;;58.17;26.42;;;;;;;;;;5015773;28;20061;-51
2021/07/02 11:43:17;;;;;;;53.42;26.00;;;;;;;;;;5018270;28;20678;-51
2021/07/02 11:45:52;;;;;;;54.03;27.33;;;;;;;;;;5016003;28;20085;-49
2021/07/02 11:48:21;;;;;;;53.95;25.70;;;;;;;;;;5026730;28;20064;-51
2021/07/02 11:50:48;;;;;;;54.35;26.80;;;;;;;;;;5015757;28;20156;-50
2021/07/02 11:53:32;;;;;;;49.67;23.97;;;;;;;;;;5016911;28;20530;-50
2021/07/02 11:56:05;;;;;;;51.90;24.02;;;;;;;;;;5010102;28;20373;-51
2021/07/02 11:58:33;;;;;;;50.45;25.55;;;;;;;;;;5020810;28;20572;-48
2021/07/02 12:01:01;;;;;;;54.42;24.92;;;;;;;;;;5019321;28;20041;-49
2021/07/02 12:03:28;;;;;;;53.58;24.50;;;;;;;;;;5013607;28;20044;-49
2021/07/02 12:05:59;;;;;;;42.80;21.55;;;;;;;;;;5015181;28;21007;-51
2021/07/02 12:08:27;;;;;;;46.45;21.55;;;;;;;;;;5010433;28;20069;-49
2021/07/02 12:11:01;;;;;;;44.80;21.60;;;;;;;;;;5015645;28;20057;-51
2021/07/02 12:13:28;;;;;;;42.50;21.08;;;;;;;;;;5011002;28;20058;-50
2021/07/02 12:16:02;;;;;;;48.83;22.25;;;;;;;;;;5024831;28;20488;-52
2021/07/02 12:18:28;;;;;;;50.42;22.17;;;;;;;;;;5010740;28;20053;-49
2021/07/02 12:20:59;;;;;;;45.92;22.67;;;;;;;;;;5015186;28;20080;-49
2021/07/02 12:23:29;;;;;;;47.78;21.42;;;;;;;;;;5016464;28;20169;-51
2021/07/02 12:26:11;;;;;;;41.55;20.55;;;;;;;;;;5015396;28;20049;-49
2021/07/02 12:29:07;;;;;;;42.92;21.27;;;;;;;;;;5022487;28;20619;-48
2021/07/02 12:31:43;;;;;;;44.20;20.80;;;;;;;;;;5010721;28;20061;-50
2021/07/02 12:34:11;;;;;;;40.33;21.38;;;;;;;;;;5004614;28;20144;-50
2021/07/02 12:36:49;;;;;;;50.10;22.45;;;;;;;;;;5004191;28;20054;-50
2021/07/02 12:39:16;;;;;;;43.30;22.38;;;;;;;;;;5003626;28;20483;-49
2021/07/02 12:41:47;;;;;;;45.72;22.50;;;;;;;;;;5002805;28;20465;-49
2021/07/02 12:44:16;;;;;;;46.55;22.25;;;;;;;;;;5020196;28;20060;-49
2021/07/02 12:46:42;;;;;;;52.70;22.20;;;;;;;;;;5014052;28;20053;-49
2021/07/02 12:49:29;;;;;;;50.80;23.85;;;;;;;;;;5018648;28;20158;-49
2021/07/02 12:55:00;;;;;;;48.30;22.98;;;;;;;;;;5021408;28;20132;-49
2021/07/02 12:57:38;;;;;;;45.55;20.27;;;;;;;;;;5002344;28;20056;-49
2021/07/02 13:00:23;;;;;;;47.55;23.73;;;;;;;;;;5001797;28;20163;-51
2021/07/02 13:02:52;;;;;;;50.20;23.65;;;;;;;;;;5004891;28;20480;-51
2021/07/02 13:05:18;;;;;;;;;;;;;;;;;;5025260;28;20049;-49
2021/07/02 13:07:45;;;;;;;52.85;24.63;;;;;;;;;;5019103;28;20040;-49
2021/07/02 13:10:14;;;;;;;47.88;23.35;;;;;;;;;;5008069;28;20762;-49
2021/07/02 13:12:40;;;;;;;;;;;;;;;;;;5015447;28;20054;-49
2021/07/02 13:15:11;;;;;;;52.95;23.52;;;;;;;;;;4991782;28;19971;-49
2021/07/02 13:17:42;;;;;;;51.78;24.17;;;;;;;;;;5010107;28;20153;-48
2021/07/02 13:20:09;;;;;;;50.13;24.35;;;;;;;;;;5011960;28;20594;-50
2021/07/02 13:22:35;;;;;;;51.33;24.15;;;;;;;;;;5021455;28;20168;-49
2021/07/02 13:25:04;;;;;;;54.38;25.10;;;;;;;;;;5019212;28;20140;-49
2021/07/02 13:27:30;;;;;;;50.70;26.13;;;;;;;;;;5008387;28;20046;-49
2021/07/02 13:30:05;;;;;;;53.38;25.70;;;;;;;;;;5020344;28;20115;-50
2021/07/02 13:32:32;;;;;;;51.88;25.42;;;;;;;;;;5014457;28;20134;-49
2021/07/02 13:34:59;;;;;;;54.67;25.55;;;;;;;;;;5019576;28;20056;-49
2021/07/02 13:37:26;;;;;;;54.92;26.58;;;;;;;;;;5018257;28;20143;-49
2021/07/02 13:39:52;;;;;;;47.25;23.40;;;;;;;;;;5022549;28;20049;-48
2021/07/02 13:42:32;;;;;;;54.85;24.80;;;;;;;;;;5013209;28;20049;-48
2021/07/02 13:45:04;;;;;;;56.20;26.55;;;;;;;;;;5018171;28;20057;-51
2021/07/02 13:47:33;;;;;;;56.95;27.15;;;;;;;;;;5004682;28;20133;-50
2021/07/02 13:50:00;;;;;;;53.22;26.50;;;;;;;;;;5010450;28;20061;-49
2021/07/02 13:52:29;;;;;;;56.63;27.35;;;;;;;;;;5022454;28;20053;-49
2021/07/02 13:54:56;;;;;;;57.42;26.95;;;;;;;;;;5016277;28;20093;-51
2021/07/02 13:57:23;;;;;;;56.72;27.30;;;;;;;;;;5016907;28;20793;-50
2021/07/02 13:59:50;;;;;;;52.42;26.08;;;;;;;;;;5015218;28;20052;-49
2021/07/02 14:02:16;;;;;;;55.25;26.85;;;;;;;;;;5020277;28;20055;-49
2021/07/02 14:04:43;;;;;;;55.25;25.67;;;;;;;;;;5012804;28;20140;-49
2021/07/02 14:07:09;;;;;;;51.00;26.73;;;;;;;;;;5015824;28;20462;-49
2021/07/02 14:09:36;;;;;;;51.33;25.15;;;;;;;;;;5010398;28;20452;-49
2021/07/02 14:12:03;;;;;;;45.67;23.87;;;;;;;;;;5009444;28;20824;-50
2021/07/02 14:14:29;;;;;;;52.15;24.88;;;;;;;;;;5011219;28;20447;-48
2021/07/02 14:16:56;;;;;;;50.55;24.85;;;;;;;;;;5004510;28;20038;-49
2021/07/02 14:19:24;;;;;;;54.65;26.48;;;;;;;;;;5006580;28;20191;-51
2021/07/02 14:21:50;;;;;;;49.47;23.15;;;;;;;;;;5007257;28;20467;-49
2021/07/02 14:24:16;;;;;;;49.95;24.90;;;;;;;;;;5010321;28;20125;-49
2021/07/02 14:26:43;;;;;;;46.88;23.20;;;;;;;;;;5006073;28;20101;-48
2021/07/02 14:29:12;;;;;;;54.92;24.63;;;;;;;;;;5003897;28;20085;-47
2021/07/02 14:31:38;;;;;;;53.88;24.52;;;;;;;;;;5014380;28;20537;-48